createdAt,value
2023-04-28T00:00:42.240Z,815.4167
2023-04-28T00:01:46.151Z,813.5833
2023-04-28T00:02:50.106Z,882.0000
2023-04-28T00:03:54.163Z,962.5000
2023-04-28T00:04:58.380Z,999.1667
2023-04-28T00:06:02.345Z,962.2500
2023-04-28T00:07:06.263Z,878.7500
2023-04-28T00:08:10.192Z,848.8333
2023-04-28T00:09:14.078Z,923.5000
2023-04-28T00:10:18.000Z,958.1667
2023-04-28T00:11:21.875Z,926.3333
2023-04-28T00:12:26.031Z,914.4167
2023-04-28T00:13:29.911Z,867.6667
2023-04-28T00:14:31.764Z,826.3636
2023-04-28T00:15:35.637Z,889.3333
2023-04-28T00:16:39.639Z,953.9167
2023-04-28T00:17:43.723Z,937.0833
2023-04-28T00:18:47.640Z,916.6667
2023-04-28T00:19:51.729Z,875.1667
2023-04-28T00:20:55.634Z,804.8333
2023-04-28T00:21:59.515Z,819.0000
2023-04-28T00:23:03.577Z,884.4167
2023-04-28T00:24:07.465Z,960.2500
2023-04-28T00:25:11.409Z,964.0000
2023-04-28T00:26:15.275Z,926.6667
2023-04-28T00:27:19.186Z,843.5833
2023-04-28T00:28:33.641Z,818.6667
2023-04-28T00:29:27.553Z,877.9091
2023-04-28T00:30:31.767Z,942.8333
2023-04-28T00:31:35.829Z,924.4167
2023-04-28T00:32:39.998Z,905.2500
2023-04-28T00:33:43.918Z,854.3333
2023-04-28T00:34:47.827Z,800.0833
2023-04-28T00:35:51.717Z,837.5833
2023-04-28T00:36:55.652Z,907.5833
2023-04-28T00:37:59.549Z,942.7500
2023-04-28T00:39:03.442Z,910.5833
2023-04-28T00:40:07.607Z,875.7500
2023-04-28T00:41:11.479Z,808.9167
2023-04-28T00:42:15.627Z,785.2500
2023-04-28T00:43:19.503Z,840.0833
2023-04-28T00:44:23.402Z,909.5833
2023-04-28T00:45:27.342Z,956.1667
2023-04-28T00:46:31.211Z,927.5000
2023-04-28T00:47:35.156Z,865.5833
2023-04-28T00:48:39.085Z,806.6667
2023-04-28T00:49:43.221Z,843.6667
2023-04-28T00:50:47.131Z,901.0833
2023-04-28T00:51:51.004Z,913.2500
2023-04-28T00:52:51.363Z,881.0909
2023-04-28T00:53:55.241Z,862.4167
2023-04-28T00:54:59.432Z,804.0000
2023-04-28T00:56:03.329Z,811.7500
2023-04-28T00:57:07.219Z,866.7500
2023-04-28T00:58:11.236Z,920.5000
2023-04-28T00:59:15.144Z,917.3333
2023-04-28T01:00:19.085Z,890.9167
2023-04-28T01:01:23.057Z,833.6667
2023-04-28T01:02:27.100Z,808.4167
2023-04-28T01:03:31.194Z,856.4167
2023-04-28T01:04:35.165Z,909.6667
2023-04-28T01:05:39.090Z,901.0833
2023-04-28T01:06:42.968Z,877.0833
2023-04-28T01:07:46.886Z,842.1667
2023-04-28T01:08:50.789Z,789.5000
2023-04-28T01:09:55.001Z,818.1667
2023-04-28T01:10:58.916Z,879.7500
2023-04-28T01:12:02.809Z,925.0833
2023-04-28T01:13:06.869Z,905.1667
2023-04-28T01:14:10.799Z,877.0833
2023-04-28T01:15:14.695Z,806.8333
2023-04-28T01:16:18.612Z,796.9167
2023-04-28T01:17:22.500Z,846.8333
2023-04-28T01:18:26.385Z,901.6667
2023-04-28T01:19:30.291Z,909.5000
2023-04-28T01:20:34.455Z,870.5833
2023-04-28T01:21:38.312Z,832.4167
2023-04-28T01:22:42.224Z,789.6667
2023-04-28T01:23:46.105Z,831.6667
2023-04-28T01:24:49.999Z,880.0833
2023-04-28T01:25:53.904Z,880.4167
2023-04-28T01:26:57.824Z,859.5833
2023-04-28T01:28:02.068Z,839.0000
2023-04-28T01:29:05.956Z,783.1667
2023-04-28T01:30:09.872Z,807.7500
2023-04-28T01:31:13.813Z,857.7500
2023-04-28T01:32:17.680Z,893.5833
2023-04-28T01:33:21.602Z,872.0833
2023-04-28T01:34:25.507Z,849.9167
2023-04-28T01:35:29.410Z,801.0833
2023-04-28T01:36:35.240Z,795.0000
2023-04-28T01:37:35.552Z,848.0000
2023-04-28T01:38:39.461Z,895.8333
2023-04-28T01:39:43.410Z,891.0000
2023-04-28T01:40:47.291Z,868.1667
2023-04-28T01:41:51.215Z,834.3333
2023-04-28T01:42:55.417Z,790.1667
2023-04-28T01:43:59.333Z,829.3333
2023-04-28T01:45:03.317Z,893.2500
2023-04-28T01:46:08.012Z,923.3333
2023-04-28T01:47:11.861Z,904.3333
2023-04-28T01:48:16.009Z,866.5000
2023-04-28T01:49:19.893Z,804.9167
2023-04-28T01:50:23.824Z,816.6667
2023-04-28T01:51:27.681Z,878.5833
2023-04-28T01:52:31.611Z,942.0833
2023-04-28T01:53:35.530Z,956.5000
2023-04-28T01:54:39.416Z,923.3333
2023-04-28T01:55:43.664Z,838.9167
2023-04-28T01:56:47.538Z,815.4167
2023-04-28T01:57:51.736Z,874.2500
2023-04-28T01:58:55.632Z,944.0833
2023-04-28T01:59:59.619Z,964.3333
2023-04-28T02:01:03.587Z,936.8333
2023-04-28T02:02:07.575Z,869.5000
2023-04-28T02:03:11.561Z,807.1667
2023-04-28T02:04:15.716Z,844.9167
2023-04-28T02:05:27.989Z,920.0000
2023-04-28T02:06:31.896Z,972.2500
2023-04-28T02:07:35.797Z,953.4167
2023-04-28T02:08:39.706Z,898.2500
2023-04-28T02:09:43.625Z,822.2500
2023-04-28T02:10:47.534Z,848.6667
2023-04-28T02:11:51.469Z,924.1667
2023-04-28T02:12:55.627Z,966.0833
2023-04-28T02:13:59.537Z,949.8333
2023-04-28T02:15:03.679Z,905.0000
2023-04-28T02:16:07.609Z,819.8333
2023-04-28T02:17:11.509Z,803.3333
2023-04-28T02:18:15.386Z,863.0833
2023-04-28T02:19:19.284Z,917.5833
2023-04-28T02:20:23.179Z,964.7500
2023-04-28T02:21:27.084Z,955.4167
2023-04-28T02:22:30.968Z,869.6667
2023-04-28T02:23:34.891Z,825.1667
2023-04-28T02:24:39.019Z,876.9167
2023-04-28T02:25:42.933Z,941.5833
2023-04-28T02:26:46.825Z,935.6667
2023-04-28T02:27:50.855Z,916.4167
2023-04-28T02:28:54.744Z,860.2500
2023-04-28T02:29:58.670Z,792.0000
2023-04-28T02:31:02.563Z,813.7500
2023-04-28T02:32:06.462Z,869.5000
2023-04-28T02:33:10.652Z,931.5833
2023-04-28T02:34:14.797Z,958.0000
2023-04-28T02:35:19.069Z,920.3333
2023-04-28T02:36:23.003Z,821.6667
2023-04-28T02:37:26.966Z,794.1667
2023-04-28T02:38:30.850Z,843.4167
2023-04-28T02:39:34.765Z,899.2500
2023-04-28T02:40:38.663Z,942.6667
2023-04-28T02:41:42.571Z,921.0000
2023-04-28T02:42:42.952Z,856.7273
2023-04-28T02:43:46.855Z,790.7500
2023-04-28T02:44:50.770Z,818.6667
2023-04-28T02:45:54.658Z,870.3333
2023-04-28T02:46:58.562Z,922.2500
2023-04-28T02:48:02.784Z,927.0833
2023-04-28T02:49:06.673Z,885.4167
2023-04-28T02:50:10.589Z,807.1667
2023-04-28T02:51:14.499Z,802.0833
2023-04-28T02:52:18.359Z,856.7500
2023-04-28T02:53:22.276Z,910.3333
2023-04-28T02:54:26.172Z,932.0833
2023-04-28T02:55:30.110Z,904.2500
2023-04-28T02:56:34.002Z,833.4167
2023-04-28T02:57:38.240Z,788.0000
2023-04-28T02:58:42.130Z,836.1667
2023-04-28T02:59:46.025Z,889.3333
2023-04-28T03:00:46.397Z,934.9091
2023-04-28T03:01:50.330Z,935.0000
2023-04-28T03:02:54.322Z,879.5000
2023-04-28T03:03:58.416Z,802.5833
2023-04-28T03:05:02.689Z,820.5000
2023-04-28T03:06:06.567Z,875.9167
2023-04-28T03:07:10.479Z,930.5833
2023-04-28T03:08:14.406Z,947.8333
2023-04-28T03:09:18.303Z,902.0000
2023-04-28T03:10:22.171Z,821.2500
2023-04-28T03:11:26.077Z,814.0833
2023-04-28T03:12:29.963Z,867.1667
2023-04-28T03:13:33.870Z,924.1667
2023-04-28T03:14:37.796Z,950.5000
2023-04-28T03:15:41.897Z,917.9167
2023-04-28T03:16:45.858Z,833.9167
2023-04-28T03:17:50.147Z,788.0000
2023-04-28T03:18:54.102Z,830.9167
2023-04-28T03:19:57.970Z,885.8333
2023-04-28T03:21:01.918Z,945.9167
2023-04-28T03:22:05.780Z,967.4167
2023-04-28T03:23:09.924Z,903.6667
2023-04-28T03:24:14.080Z,813.4167
2023-04-28T03:25:18.447Z,839.8333
2023-04-28T03:26:22.347Z,901.9167
2023-04-28T03:27:26.249Z,957.3333
2023-04-28T03:28:30.157Z,959.2500
2023-04-28T03:29:34.034Z,904.9167
2023-04-28T03:30:37.943Z,814.2500
2023-04-28T03:31:41.850Z,799.8333
2023-04-28T03:32:45.962Z,851.9167
2023-04-28T03:33:49.845Z,915.5833
2023-04-28T03:34:53.776Z,968.6667
2023-04-28T03:35:57.678Z,976.6667
2023-04-28T03:37:01.579Z,880.5833
2023-04-28T03:38:05.703Z,800.1667
2023-04-28T03:39:09.625Z,834.9167
2023-04-28T03:40:13.523Z,889.8333
2023-04-28T03:41:17.449Z,946.8333
2023-04-28T03:42:21.388Z,973.5833
2023-04-28T03:43:25.307Z,916.9167
2023-04-28T03:44:26.090Z,809.6000
2023-04-28T03:45:30.008Z,794.8333
2023-04-28T03:46:33.886Z,845.4167
2023-04-28T03:47:37.809Z,906.3333
2023-04-28T03:48:41.682Z,954.5000
2023-04-28T03:49:45.627Z,971.3333
2023-04-28T03:50:49.507Z,869.0833
2023-04-28T03:51:53.407Z,834.1667
2023-04-28T03:52:57.366Z,885.3333
2023-04-28T03:54:01.260Z,938.8333
2023-04-28T03:55:05.422Z,944.4167
2023-04-28T03:56:06.249Z,916.5000
2023-04-28T03:57:10.132Z,844.8333
2023-04-28T03:58:14.055Z,786.3333
2023-04-28T03:59:17.962Z,804.0000
2023-04-28T04:00:18.539Z,863.4545
2023-04-28T04:01:22.408Z,917.6667
2023-04-28T04:02:26.382Z,969.3333
2023-04-28T04:03:30.461Z,989.5833
2023-04-28T04:04:34.715Z,859.5000
2023-04-28T04:05:38.736Z,828.3333
2023-04-28T04:06:42.620Z,881.6667
2023-04-28T04:07:46.520Z,942.0833
2023-04-28T04:08:50.434Z,978.7500
2023-04-28T04:09:54.322Z,970.0000
2023-04-28T04:10:58.240Z,858.9167
2023-04-28T04:12:02.120Z,803.4167
2023-04-28T04:13:06.012Z,840.0833
2023-04-28T04:14:09.920Z,907.9167
2023-04-28T04:15:13.815Z,954.8333
2023-04-28T04:16:17.842Z,973.6667
2023-04-28T04:17:21.745Z,913.4167
2023-04-28T04:18:25.700Z,804.0833
2023-04-28T04:19:29.591Z,797.0833
2023-04-28T04:20:33.501Z,849.3333
2023-04-28T04:21:37.405Z,908.5833
2023-04-28T04:22:41.312Z,962.5000
2023-04-28T04:23:45.189Z,986.7500
2023-04-28T04:24:49.092Z,870.3333
2023-04-28T04:25:53.126Z,793.7500
2023-04-28T04:26:57.006Z,822.4167
2023-04-28T04:28:01.088Z,875.8333
2023-04-28T04:29:05.006Z,926.6667
2023-04-28T04:30:08.904Z,971.2500
2023-04-28T04:31:12.826Z,944.2500
2023-04-28T04:32:16.780Z,812.6667
2023-04-28T04:33:20.677Z,795.5000
2023-04-28T04:34:32.182Z,845.8333
2023-04-28T04:35:25.468Z,908.1000
2023-04-28T04:36:29.408Z,952.5833
2023-04-28T04:37:33.294Z,968.3333
2023-04-28T04:38:37.214Z,873.6667
2023-04-28T04:39:41.127Z,792.0000
2023-04-28T04:40:45.008Z,821.4167
2023-04-28T04:41:48.930Z,867.5833
2023-04-28T04:42:53.179Z,923.8333
2023-04-28T04:43:57.071Z,969.6667
2023-04-28T04:45:17.199Z,941.5455
2023-04-28T04:46:05.174Z,814.2222
2023-04-28T04:47:09.070Z,834.6667
2023-04-28T04:48:13.037Z,880.4167
2023-04-28T04:49:16.943Z,933.6667
2023-04-28T04:50:20.835Z,962.4167
2023-04-28T04:51:24.712Z,940.0000
2023-04-28T04:52:28.625Z,820.3333
2023-04-28T04:53:32.780Z,777.9167
2023-04-28T04:54:36.662Z,819.5000
2023-04-28T04:55:40.564Z,870.4167
2023-04-28T04:56:44.458Z,933.2500
2023-04-28T04:57:48.374Z,967.9167
2023-04-28T04:58:52.268Z,925.4167
2023-04-28T04:59:56.164Z,834.0000
2023-04-28T05:01:00.080Z,866.3333
2023-04-28T05:02:04.035Z,921.2500
2023-04-28T05:03:08.159Z,955.7500
2023-04-28T05:04:12.215Z,956.0833
2023-04-28T05:05:21.454Z,879.4167
2023-04-28T05:06:20.643Z,785.3636
2023-04-28T05:07:24.551Z,779.0833
2023-04-28T05:08:28.606Z,831.6667
2023-04-28T05:09:32.507Z,880.4167
2023-04-28T05:10:36.400Z,930.1667
2023-04-28T05:11:40.308Z,970.5833
2023-04-28T05:12:45.455Z,874.1667
2023-04-28T05:13:45.375Z,806.6364
2023-04-28T05:14:49.286Z,843.9167
2023-04-28T05:16:05.044Z,891.3333
2023-04-28T05:16:58.457Z,940.9000
2023-04-28T05:18:02.377Z,960.8333
2023-04-28T05:19:06.264Z,884.4167
2023-04-28T05:20:11.073Z,787.3333
2023-04-28T05:21:11.260Z,799.0909
2023-04-28T05:22:15.153Z,843.0833
2023-04-28T05:23:19.096Z,897.5000
2023-04-28T05:24:23.013Z,943.4167
2023-04-28T05:25:26.923Z,958.6667
2023-04-28T05:26:30.804Z,839.2500
2023-04-28T05:27:34.717Z,784.5833
2023-04-28T05:29:13.280Z,825.8333
2023-04-28T05:29:41.610Z,882.2000
2023-04-28T05:30:40.200Z,917.7273
2023-04-28T05:31:44.143Z,953.9167
2023-04-28T05:32:48.063Z,920.0833
2023-04-28T05:33:48.362Z,801.0000
2023-04-28T05:34:52.277Z,803.5000
2023-04-28T05:35:56.187Z,843.9167
2023-04-28T05:37:00.101Z,898.6667
2023-04-28T05:38:04.282Z,947.0833
2023-04-28T05:39:08.164Z,953.5833
2023-04-28T05:40:12.079Z,837.5833
2023-04-28T05:41:16.206Z,809.5833
2023-04-28T05:42:20.106Z,854.3333
2023-04-28T05:43:24.085Z,906.8333
2023-04-28T05:44:27.959Z,947.7500
2023-04-28T05:45:32.000Z,942.5833
2023-04-28T05:46:35.962Z,849.7500
2023-04-28T05:47:39.956Z,775.0833
2023-04-28T05:48:43.967Z,803.6667
2023-04-28T05:49:47.861Z,851.3333
2023-04-28T05:50:52.080Z,912.7500
2023-04-28T05:51:56.001Z,959.0833
2023-04-28T05:52:59.879Z,946.9167
2023-04-28T05:54:03.793Z,828.2500
2023-04-28T05:55:07.694Z,828.1667
2023-04-28T05:56:11.618Z,881.5833
2023-04-28T05:57:15.494Z,941.7500
2023-04-28T05:58:19.648Z,979.0833
2023-04-28T05:59:23.530Z,983.5833
2023-04-28T06:00:27.460Z,858.0000
2023-04-28T06:01:31.575Z,796.3333
2023-04-28T06:02:35.619Z,833.4167
2023-04-28T06:03:39.669Z,911.3333
2023-04-28T06:04:43.804Z,974.8333
2023-04-28T06:05:48.072Z,1013.4167
2023-04-28T06:06:52.096Z,1011.0000
2023-04-28T06:07:56.079Z,861.4167
2023-04-28T06:09:00.044Z,818.3333
2023-04-28T06:10:03.938Z,871.0833
2023-04-28T06:11:07.833Z,946.0000
2023-04-28T06:12:11.750Z,1003.1667
2023-04-28T06:13:15.650Z,1046.1666
2023-04-28T06:14:19.794Z,1002.5000
2023-04-28T06:15:23.770Z,853.5833
2023-04-28T06:16:27.787Z,842.4167
2023-04-28T06:17:31.770Z,913.2500
2023-04-28T06:18:35.876Z,977.0000
2023-04-28T06:19:39.783Z,1034.0834
2023-04-28T06:20:43.669Z,1121.5834
2023-04-28T06:21:47.588Z,1009.2500
2023-04-28T06:22:51.483Z,797.5000
2023-04-28T06:23:55.382Z,708.2500
2023-04-28T06:24:59.318Z,753.2500
2023-04-28T06:26:03.432Z,842.1667
2023-04-28T06:27:07.314Z,948.1667
2023-04-28T06:28:11.509Z,1059.5834
2023-04-28T06:29:15.375Z,1087.0000
2023-04-28T06:30:19.264Z,965.3333
2023-04-28T06:31:23.185Z,1034.0000
2023-04-28T06:32:27.127Z,1114.2500
2023-04-28T06:33:30.988Z,1190.1666
2023-04-28T06:34:34.911Z,1245.5000
2023-04-28T06:35:39.063Z,1125.4166
2023-04-28T06:36:42.948Z,866.5833
2023-04-28T06:37:46.829Z,866.7500
2023-04-28T06:38:50.983Z,976.9167
2023-04-28T06:39:54.886Z,1081.4166
2023-04-28T06:40:58.786Z,1158.5834
2023-04-28T06:42:02.695Z,1181.1666
2023-04-28T06:43:06.581Z,960.9167
2023-04-28T06:44:10.517Z,948.2500
2023-04-28T06:45:14.393Z,1048.2500
2023-04-28T06:46:14.784Z,1131.0909
2023-04-28T06:47:18.739Z,1204.0834
2023-04-28T06:48:22.651Z,1216.9166
2023-04-28T06:49:26.529Z,981.1667
2023-04-28T06:50:30.477Z,875.2500
2023-04-28T06:51:34.351Z,972.9167
2023-04-28T06:52:39.659Z,1076.0834
2023-04-28T06:53:38.547Z,1155.5454
2023-04-28T06:54:42.422Z,1210.0000
2023-04-28T06:55:46.319Z,1061.6666
2023-04-28T06:56:50.249Z,909.8333
2023-04-28T06:57:54.639Z,998.6667
2023-04-28T06:58:58.612Z,1101.3334
2023-04-28T07:00:02.488Z,1177.0834
2023-04-28T07:01:06.373Z,1240.5834
2023-04-28T07:02:10.297Z,1099.0834
2023-04-28T07:03:14.367Z,866.0833
2023-04-28T07:04:18.638Z,913.0000
2023-04-28T07:05:22.744Z,1034.4166
2023-04-28T07:06:26.612Z,1121.3334
2023-04-28T07:07:30.505Z,1203.2500
2023-04-28T07:08:34.425Z,1162.9166
2023-04-28T07:09:38.342Z,925.0833
2023-04-28T07:10:42.237Z,928.7500
2023-04-28T07:11:46.580Z,1041.3334
2023-04-28T07:12:50.474Z,1133.5834
2023-04-28T07:13:54.372Z,1206.4166
2023-04-28T07:14:58.281Z,1199.1666
2023-04-28T07:16:02.462Z,953.2500
2023-04-28T07:17:06.343Z,885.0000
2023-04-28T07:18:10.504Z,1002.4167
2023-04-28T07:19:14.389Z,1107.8334
2023-04-28T07:20:18.289Z,1188.8334
2023-04-28T07:21:22.259Z,1222.6666
2023-04-28T07:22:26.186Z,1021.6667
2023-04-28T07:23:30.077Z,910.5000
2023-04-28T07:24:33.958Z,1008.0000
2023-04-28T07:25:38.194Z,1112.0000
2023-04-28T07:26:42.124Z,1200.0000
2023-04-28T07:27:46.614Z,1244.2500
2023-04-28T07:28:50.522Z,1073.9166
2023-04-28T07:29:54.437Z,856.1667
2023-04-28T07:30:58.329Z,921.0833
2023-04-28T07:32:02.288Z,1038.9166
2023-04-28T07:33:06.466Z,1138.8334
2023-04-28T07:34:10.493Z,1206.5834
2023-04-28T07:35:14.413Z,1159.5834
2023-04-28T07:36:18.312Z,928.6667
2023-04-28T07:37:22.230Z,959.1667
2023-04-28T07:38:26.121Z,1070.9166
2023-04-28T07:39:30.027Z,1156.3334
2023-04-28T07:40:33.968Z,1233.5000
2023-04-28T07:41:37.934Z,1196.3334
2023-04-28T07:42:41.855Z,956.1667
2023-04-28T07:43:46.083Z,935.2500
2023-04-28T07:44:49.963Z,1046.7500
2023-04-28T07:45:53.947Z,1139.4166
2023-04-28T07:46:57.829Z,1212.4166
2023-04-28T07:48:01.777Z,1222.2500
2023-04-28T07:49:05.641Z,1012.0833
2023-04-28T07:50:09.546Z,996.5000
2023-04-28T07:51:13.458Z,1103.4166
2023-04-28T07:52:17.351Z,1188.9166
2023-04-28T07:53:21.505Z,1249.0000
2023-04-28T07:54:25.388Z,1239.8334
2023-04-28T07:55:29.613Z,1003.3333
2023-04-28T07:56:33.508Z,938.1667
2023-04-28T07:57:37.405Z,1044.7500
2023-04-28T07:58:41.342Z,1147.5834
2023-04-28T07:59:45.233Z,1226.6666
2023-04-28T08:00:49.178Z,1257.7500
2023-04-28T08:01:53.071Z,1042.4166
2023-04-28T08:02:57.149Z,870.8333
2023-04-28T08:04:01.424Z,971.2500
2023-04-28T08:05:05.779Z,1081.0834
2023-04-28T08:06:09.749Z,1168.2500
2023-04-28T08:07:13.666Z,1236.7500
2023-04-28T08:08:17.724Z,1120.0000
2023-04-28T08:09:21.627Z,967.6667
2023-04-28T08:10:25.876Z,1056.1666
2023-04-28T08:11:29.831Z,1149.2500
2023-04-28T08:12:33.701Z,1223.8334
2023-04-28T08:13:37.638Z,1743.0000
2023-04-28T08:14:41.556Z,1983.0000
2023-04-28T08:15:45.603Z,1364.9166
2023-04-28T08:16:49.453Z,1252.7500
2023-04-28T08:17:53.393Z,1081.5000
2023-04-28T08:18:57.375Z,835.5833
2023-04-28T08:20:01.232Z,1278.1666
2023-04-28T08:21:05.160Z,1080.0834
2023-04-28T08:22:09.050Z,859.5833
2023-04-28T08:23:12.972Z,1115.7500
2023-04-28T08:24:17.014Z,1197.0000
2023-04-28T08:25:20.964Z,1246.0000
2023-04-28T08:26:24.915Z,1325.3334
2023-04-28T08:27:28.778Z,1367.3334
2023-04-28T08:28:32.929Z,1277.1666
2023-04-28T08:29:36.860Z,1335.4166
2023-04-28T08:30:40.887Z,1412.2500
2023-04-28T08:31:44.856Z,1474.4166
2023-04-28T08:32:48.823Z,1519.1666
2023-04-28T08:34:56.652Z,1094.4166
2023-04-28T08:36:00.547Z,1086.7500
2023-04-28T08:37:04.481Z,1215.5834
2023-04-28T08:38:08.470Z,1334.0000
2023-04-28T08:39:13.653Z,1413.6666
2023-04-28T08:40:17.646Z,1434.3334
2023-04-28T08:41:21.538Z,1201.3334
2023-04-28T08:42:25.451Z,1113.6666
2023-04-28T08:43:29.610Z,1215.5000
2023-04-28T08:44:33.534Z,1326.2500
2023-04-28T08:45:37.717Z,1410.2500
2023-04-28T08:46:41.689Z,1456.5834
2023-04-28T08:47:45.659Z,1262.4166
2023-04-28T08:48:49.624Z,1126.0000
2023-04-28T08:49:53.509Z,1220.8334
2023-04-28T08:50:57.424Z,1324.3334
2023-04-28T08:52:01.380Z,1409.5834
2023-04-28T08:53:05.357Z,1468.4166
2023-04-28T08:54:18.984Z,1309.2500
2023-04-28T08:55:13.768Z,1061.9091
2023-04-28T08:56:17.658Z,1125.0000
2023-04-28T08:57:21.560Z,1246.3334
2023-04-28T08:58:25.519Z,1353.5000
2023-04-28T08:59:29.417Z,1427.7500
2023-04-28T09:00:33.298Z,1399.4166
2023-04-28T09:01:37.248Z,1150.4166
2023-04-28T09:02:41.259Z,1163.5000
2023-04-28T09:03:45.364Z,1268.4166
2023-04-28T09:04:49.557Z,1369.6666
2023-04-28T09:05:53.662Z,1443.5834
2023-04-28T09:06:57.524Z,1439.9166
2023-04-28T09:08:01.429Z,1190.8334
2023-04-28T09:09:05.625Z,1142.7500
2023-04-28T09:10:09.529Z,1248.5834
2023-04-28T09:11:13.703Z,1352.8334
2023-04-28T09:12:17.602Z,1429.3334
2023-04-28T09:13:21.509Z,1454.8334
2023-04-28T09:14:25.422Z,1226.3334
2023-04-28T09:15:31.205Z,1107.9166
2023-04-28T09:16:31.565Z,1217.0909
2023-04-28T09:17:35.517Z,1315.2500
2023-04-28T09:18:40.624Z,1401.4166
2023-04-28T09:19:44.513Z,1460.3334
2023-04-28T09:20:48.437Z,1288.5834
2023-04-28T09:21:52.335Z,1174.0000
2023-04-28T09:22:56.241Z,1269.5834
2023-04-28T09:24:00.396Z,1367.4166
2023-04-28T09:25:04.276Z,1432.0834
2023-04-28T09:26:08.297Z,1486.5834
2023-04-28T09:27:12.291Z,1291.0834
2023-04-28T09:28:16.172Z,1080.5000
2023-04-28T09:29:20.070Z,1165.6666
2023-04-28T09:30:23.977Z,1285.0000
2023-04-28T09:31:27.924Z,1370.3334
2023-04-28T09:32:32.042Z,1442.7500
2023-04-28T09:33:36.070Z,1353.4166
2023-04-28T09:34:39.962Z,1133.8334
2023-04-28T09:35:43.982Z,1194.6666
2023-04-28T09:36:47.866Z,1305.5834
2023-04-28T09:37:51.762Z,1395.6666
2023-04-28T09:38:57.025Z,1452.8334
2023-04-28T09:40:00.938Z,1391.5000
2023-04-28T09:41:05.070Z,1146.6666
2023-04-28T09:42:09.025Z,1174.2500
2023-04-28T09:43:21.474Z,1285.2500
2023-04-28T09:44:17.601Z,1384.7273
2023-04-28T09:45:21.658Z,1446.4166
2023-04-28T09:46:25.595Z,1410.3334
2023-04-28T09:47:29.555Z,1176.3334
2023-04-28T09:48:33.470Z,1204.2500
2023-04-28T09:49:37.347Z,1304.9166
2023-04-28T09:50:41.259Z,1391.6666
2023-04-28T09:51:45.405Z,1456.9166
2023-04-28T09:52:49.320Z,1431.2500
2023-04-28T09:53:53.450Z,1152.6666
2023-04-28T09:54:57.390Z,1097.2500
2023-04-28T09:56:01.308Z,1217.4166
2023-04-28T09:57:05.373Z,1325.1666
2023-04-28T09:58:09.357Z,1403.0000
2023-04-28T09:59:13.258Z,1437.0834
2023-04-28T10:00:17.157Z,1233.4166
2023-04-28T10:01:21.124Z,1149.1666
2023-04-28T10:02:42.731Z,1256.3334
2023-04-28T10:03:30.098Z,1352.9091
2023-04-28T10:04:34.416Z,1421.6666
2023-04-28T10:05:38.553Z,1463.0000
2023-04-28T10:06:42.537Z,1246.9166
2023-04-28T10:07:46.465Z,1111.1666
2023-04-28T10:08:50.366Z,1215.8334
2023-04-28T10:09:54.253Z,1321.9166
2023-04-28T10:10:58.176Z,1397.7500
2023-04-28T10:12:02.057Z,1453.5834
2023-04-28T10:13:06.096Z,1294.6666
2023-04-28T10:14:10.250Z,1121.0834
2023-04-28T10:15:14.128Z,1212.7500
2023-04-28T10:16:18.285Z,1322.5834
2023-04-28T10:17:22.199Z,1399.5000
2023-04-28T10:18:26.105Z,1458.5834
2023-04-28T10:19:29.992Z,1320.2500
2023-04-28T10:20:33.880Z,1102.8334
2023-04-28T10:21:37.781Z,1177.5000
2023-04-28T10:22:41.722Z,1283.4166
2023-04-28T10:23:45.664Z,1367.5834
2023-04-28T10:24:49.585Z,1363.4166
2023-04-28T10:25:53.699Z,1043.2500
2023-04-28T10:26:57.615Z,971.5833
2023-04-28T10:28:01.495Z,960.0000
2023-04-28T10:29:05.394Z,958.5833
2023-04-28T10:30:22.919Z,960.5833
2023-04-28T10:31:13.869Z,967.0000
2023-04-28T10:32:17.796Z,972.5833
2023-04-28T10:33:21.706Z,972.0833
2023-04-28T10:34:25.612Z,972.4167
2023-04-28T10:35:29.521Z,978.6667
2023-04-28T10:36:36.542Z,1031.1666
2023-04-28T10:37:35.246Z,872.7273
2023-04-28T10:38:39.133Z,737.5833
2023-04-28T10:39:43.032Z,722.5833
2023-04-28T10:40:46.936Z,815.0833
2023-04-28T10:41:50.862Z,933.5000
2023-04-28T10:42:54.783Z,1071.5834
2023-04-28T10:43:58.722Z,1165.7500
2023-04-28T10:45:02.579Z,1193.7500
2023-04-28T10:46:06.656Z,1271.4166
2023-04-28T10:47:10.607Z,1331.5000
2023-04-28T10:48:14.502Z,1385.0834
2023-04-28T10:49:18.399Z,1427.1666
2023-04-28T10:50:29.354Z,1294.6666
2023-04-28T10:51:26.807Z,957.8182
2023-04-28T10:52:30.705Z,811.8333
2023-04-28T10:53:34.619Z,858.3333
2023-04-28T10:54:38.572Z,991.6667
2023-04-28T10:55:42.426Z,1111.0834
2023-04-28T10:56:46.368Z,1212.7500
2023-04-28T10:57:50.252Z,1209.2500
2023-04-28T10:58:54.392Z,1035.3334
2023-04-28T10:59:58.273Z,1083.1666
2023-04-28T11:01:02.442Z,1177.0000
2023-04-28T11:02:06.399Z,1259.7500
2023-04-28T11:03:10.510Z,1331.4166
2023-04-28T11:04:14.642Z,1238.5834
2023-04-28T11:05:18.709Z,955.8333
2023-04-28T11:06:22.799Z,924.1667
2023-04-28T11:07:26.677Z,1044.8334
2023-04-28T11:08:30.595Z,1156.3334
2023-04-28T11:09:34.536Z,1242.8334
2023-04-28T11:10:38.440Z,1273.5000
2023-04-28T11:11:42.572Z,1037.2500
2023-04-28T11:12:46.484Z,941.9167
2023-04-28T11:13:50.372Z,1057.2500
2023-04-28T11:14:54.268Z,1165.1666
2023-04-28T11:15:58.401Z,1212.3334
2023-04-28T11:17:02.259Z,1125.0000
2023-04-28T11:18:06.198Z,969.5000
2023-04-28T11:19:10.084Z,808.6667
2023-04-28T11:20:13.991Z,911.0833
2023-04-28T11:21:17.990Z,1065.9166
2023-04-28T11:22:21.954Z,1166.5834
2023-04-28T11:23:26.004Z,1243.1666
2023-04-28T11:24:26.200Z,1231.1818
2023-04-28T11:25:30.082Z,1046.0000
2023-04-28T11:26:34.035Z,1075.5000
2023-04-28T11:27:38.036Z,1166.7500
2023-04-28T11:28:41.906Z,1252.2500
2023-04-28T11:29:45.824Z,1316.8334
2023-04-28T11:30:49.751Z,1256.6666
2023-04-28T11:31:53.683Z,982.7500
2023-04-28T11:32:57.709Z,962.5000
2023-04-28T11:34:01.845Z,1065.7500
2023-04-28T11:35:05.730Z,1170.9166
2023-04-28T11:36:09.627Z,1253.4166
2023-04-28T11:37:13.544Z,1274.2500
2023-04-28T11:38:17.441Z,1045.5000
2023-04-28T11:39:21.361Z,985.0833
2023-04-28T11:40:25.371Z,1087.0834
2023-04-28T11:41:29.262Z,1184.9166
2023-04-28T11:42:33.139Z,1260.7500
2023-04-28T11:43:46.963Z,1289.2500
2023-04-28T11:44:41.524Z,1058.9091
2023-04-28T11:45:45.431Z,951.0000
2023-04-28T11:46:49.447Z,1052.6666
2023-04-28T11:47:53.374Z,1156.2500
2023-04-28T11:48:57.262Z,1239.0000
2023-04-28T11:50:01.229Z,1298.5834
2023-04-28T11:51:05.126Z,1116.9166
2023-04-28T11:52:09.043Z,934.9167
2023-04-28T11:53:13.074Z,1007.2500
2023-04-28T11:54:16.937Z,1120.7500
2023-04-28T11:55:20.823Z,1211.5834
2023-04-28T11:56:24.962Z,1282.0000
2023-04-28T11:57:28.884Z,1185.0834
2023-04-28T11:58:32.804Z,927.8333
2023-04-28T11:59:37.708Z,954.8333
2023-04-28T12:00:36.888Z,1076.4546
2023-04-28T12:01:40.778Z,1169.1666
2023-04-28T12:02:44.882Z,1250.7500
2023-04-28T12:03:49.083Z,1251.3334
2023-04-28T12:04:53.005Z,1094.4166
2023-04-28T12:05:57.039Z,1147.7500
2023-04-28T12:07:00.962Z,1222.9166
2023-04-28T12:08:04.859Z,1293.3334
2023-04-28T12:09:08.782Z,1349.5834
2023-04-28T12:10:12.728Z,1238.0834
2023-04-28T12:11:18.530Z,951.8333
2023-04-28T12:12:18.938Z,935.9091
2023-04-28T12:13:19.123Z,1050.1818
2023-04-28T12:14:23.016Z,1147.9166
2023-04-28T12:15:26.923Z,1235.7500
2023-04-28T12:16:31.907Z,1277.0834
2023-04-28T12:17:35.959Z,1092.7500
2023-04-28T12:18:40.080Z,1085.1666
2023-04-28T12:19:44.276Z,1177.3334
2023-04-28T12:20:48.249Z,1259.5000
2023-04-28T12:21:52.164Z,1319.8334
2023-04-28T12:22:56.082Z,1293.7500